Terminal Aerodrome Forecast
Issued by NWS Portland, ME

Home | Current Version | Previous Version | Text Only | Print | Product List | Glossary On
Versions: 1 2 3 4 5 6 7 8 9 10 11 12 13 14 15 16
000
FTUS41 KGYX 240529
TAFCON
TAF
KCON 240529Z 2406/2506 VRB04KT 5SM BR OVC004
     FM241300 15010KT P6SM OVC015
     FM242000 15011G22KT P6SM OVC020
     FM250200 16011G22KT 5SM RA BR OVC008=

USA.gov is the U.S. government's official web portal to all federal, state and local government web resources and services.